createdAt,value
2019-05-22T00:04:21.771Z,9.5
2019-05-22T00:09:17.572Z,9.9
2019-05-22T00:14:13.485Z,9.5
2019-05-22T00:19:09.277Z,8.8
2019-05-22T00:24:05.307Z,9
2019-05-22T00:29:01.262Z,9.8
2019-05-22T00:33:57.183Z,8.8
2019-05-22T00:38:53.114Z,9
2019-05-22T00:43:49.119Z,9.2
2019-05-22T00:48:45.131Z,9.6
2019-05-22T00:53:41.228Z,9.6
2019-05-22T00:58:37.220Z,10.3
2019-05-22T01:03:33.165Z,10.1
2019-05-22T01:08:29.301Z,10.3
2019-05-22T01:13:25.174Z,10.3
2019-05-22T01:18:21.051Z,10.8
2019-05-22T01:23:16.985Z,10.6
2019-05-22T01:28:12.776Z,10.6
2019-05-22T01:33:08.725Z,10.8
2019-05-22T01:38:05.098Z,10.7
2019-05-22T01:43:01.022Z,10.4
2019-05-22T01:47:57.011Z,10.8
2019-05-22T01:52:52.720Z,10
2019-05-22T01:57:48.685Z,10.2
2019-05-22T02:02:44.491Z,10.1
2019-05-22T02:07:40.511Z,10.5
2019-05-22T02:12:36.521Z,10.8
2019-05-22T02:17:32.498Z,10
2019-05-22T02:22:28.377Z,10.8
2019-05-22T02:27:24.316Z,10.4
2019-05-22T02:32:19.607Z,10.3
2019-05-22T02:37:15.813Z,9.9
2019-05-22T02:42:11.625Z,9.6
2019-05-22T02:47:18.646Z,9.6
2019-05-22T02:52:03.161Z,10.2
2019-05-22T02:56:58.867Z,9.4
2019-05-22T03:01:54.715Z,10
2019-05-22T03:06:50.600Z,9.9
2019-05-22T03:11:46.803Z,10.3
2019-05-22T03:16:42.983Z,10.9
2019-05-22T03:21:39.350Z,9.9
2019-05-22T03:26:35.334Z,9.6
2019-05-22T03:31:31.561Z,9.9
2019-05-22T03:36:27.676Z,10.2
2019-05-22T03:41:23.720Z,11.1
2019-05-22T03:46:20.422Z,12.5
2019-05-22T03:51:17.989Z,14.2
2019-05-22T03:56:15.728Z,13.9
2019-05-22T04:01:12.188Z,14.7
2019-05-22T04:06:08.675Z,15.9
2019-05-22T04:11:06.000Z,15.8
2019-05-22T04:16:02.769Z,13.9
2019-05-22T04:20:57.833Z,13.4
2019-05-22T04:25:54.038Z,16.1
2019-05-22T04:30:51.957Z,17.3
2019-05-22T04:35:50.110Z,18.9
2019-05-22T04:40:47.715Z,19.1
2019-05-22T04:45:45.250Z,20.3
2019-05-22T04:50:42.672Z,21.5
2019-05-22T04:55:39.832Z,21.4
2019-05-22T05:00:36.281Z,21
2019-05-22T05:05:32.687Z,22
2019-05-22T05:10:29.422Z,22.3
2019-05-22T05:15:26.670Z,23.3
2019-05-22T05:20:24.021Z,23.7
2019-05-22T05:25:21.097Z,23.8
2019-05-22T05:30:18.403Z,25.5
2019-05-22T05:35:15.377Z,26
2019-05-22T05:40:12.731Z,26.8
2019-05-22T05:45:13.124Z,27
2019-05-22T05:50:07.425Z,27.5
2019-05-22T05:55:04.735Z,28.9
2019-05-22T06:00:02.066Z,30
2019-05-22T06:04:59.582Z,29.3
2019-05-22T06:09:56.214Z,29.8
2019-05-22T06:14:52.894Z,30
2019-05-22T06:19:49.729Z,30.6
2019-05-22T06:24:46.792Z,31.3
2019-05-22T06:29:43.646Z,31.5
2019-05-22T06:34:40.695Z,31.8
2019-05-22T06:39:37.654Z,31.3
2019-05-22T06:44:34.337Z,32.4
2019-05-22T06:49:31.037Z,33
2019-05-22T06:54:27.988Z,33.5
2019-05-22T06:59:24.730Z,32.7
2019-05-22T07:04:21.135Z,32.3
2019-05-22T07:09:18.069Z,30.8
2019-05-22T07:14:14.702Z,32.8
2019-05-22T07:19:11.581Z,34.9
2019-05-22T07:24:07.073Z,34
2019-05-22T07:29:05.134Z,29.7
2019-05-22T07:33:59.647Z,33.6
2019-05-22T07:38:57.234Z,35.4
2019-05-22T07:43:54.706Z,36.6
2019-05-22T07:48:52.201Z,34.6
2019-05-22T07:53:48.706Z,34.9
2019-05-22T07:58:45.545Z,32.8
2019-05-22T08:03:42.128Z,34.4
2019-05-22T08:08:38.985Z,34.8
2019-05-22T08:13:34.472Z,31.2
2019-05-22T08:18:29.889Z,36.2
2019-05-22T08:23:27.502Z,33
2019-05-22T08:28:22.019Z,33
2019-05-22T08:33:19.371Z,36.5
2019-05-22T08:38:17.094Z,38.5
2019-05-22T08:43:14.731Z,38.7
2019-05-22T08:48:11.998Z,38.9
2019-05-22T08:53:08.475Z,39
2019-05-22T08:58:05.386Z,35.5
2019-05-22T09:02:59.196Z,29.7
2019-05-22T09:07:53.096Z,35.5
2019-05-22T09:12:49.425Z,30.4
2019-05-22T09:17:43.596Z,33.7
2019-05-22T09:22:41.665Z,36.4
2019-05-22T09:27:39.071Z,37.2
2019-05-22T09:32:36.353Z,39.3
2019-05-22T09:37:34.219Z,40.1
2019-05-22T09:42:31.756Z,35.9
2019-05-22T09:47:28.207Z,40.5
2019-05-22T09:52:25.309Z,40.6
2019-05-22T09:57:22.562Z,41.5
2019-05-22T10:02:19.789Z,41
2019-05-22T10:07:16.686Z,38.7
2019-05-22T10:12:13.525Z,40.9
2019-05-22T10:17:10.472Z,42.2
2019-05-22T10:22:07.458Z,42.8
2019-05-22T10:27:04.519Z,37.4
2019-05-22T10:31:57.417Z,31.1
2019-05-22T10:36:49.647Z,29.2
2019-05-22T10:41:44.426Z,35
2019-05-22T10:46:43.581Z,39
2019-05-22T10:51:40.916Z,36.4
2019-05-22T10:56:37.602Z,38.1
2019-05-22T11:01:37.641Z,41.1
2019-05-22T11:06:33.918Z,39.3
2019-05-22T11:11:30.733Z,41
2019-05-22T11:16:28.570Z,39.3
2019-05-22T11:21:23.971Z,37.4
2019-05-22T11:26:19.661Z,38.2
2019-05-22T11:31:14.357Z,36.2
2019-05-22T11:36:08.507Z,33.7
2019-05-22T11:41:02.426Z,31.2
2019-05-22T11:45:56.543Z,30.4
2019-05-22T11:50:51.398Z,30.2
2019-05-22T11:55:46.741Z,30
2019-05-22T12:00:42.427Z,30.3
2019-05-22T12:05:38.314Z,30
2019-05-22T12:10:33.989Z,28.8
2019-05-22T12:15:29.514Z,27.6
2019-05-22T12:20:24.781Z,27.2
2019-05-22T12:25:20.533Z,28.3
2019-05-22T12:30:17.701Z,35.5
2019-05-22T12:35:16.373Z,37.5
2019-05-22T12:40:16.150Z,35
2019-05-22T12:45:12.262Z,32.5
2019-05-22T12:50:08.398Z,39.8
2019-05-22T12:55:08.402Z,39
2019-05-22T13:00:04.011Z,31.8
2019-05-22T13:04:58.018Z,32.1
2019-05-22T13:09:54.448Z,38.6
2019-05-22T13:15:08.146Z,41.3
2019-05-22T13:19:50.906Z,33.1
2019-05-22T13:24:44.868Z,32.3
2019-05-22T13:29:39.449Z,31.7
2019-05-22T13:34:35.690Z,34.1
2019-05-22T13:39:32.768Z,31.8
2019-05-22T13:44:27.810Z,29.9
2019-05-22T13:49:22.759Z,29.7
2019-05-22T13:54:17.638Z,28.4
2019-05-22T13:59:13.123Z,28.8
2019-05-22T14:04:08.808Z,29.6
2019-05-22T14:09:05.035Z,29
2019-05-22T14:14:01.114Z,29.6
2019-05-22T14:18:57.020Z,28.2
2019-05-22T14:23:52.674Z,26.3
2019-05-22T14:28:48.051Z,25.4
2019-05-22T14:33:43.668Z,25.6
2019-05-22T14:38:39.467Z,25.7
2019-05-22T14:43:35.349Z,26.4
2019-05-22T14:48:31.675Z,25.6
2019-05-22T14:53:27.641Z,24.8
2019-05-22T14:58:23.323Z,24.4
2019-05-22T15:03:18.861Z,23.8
2019-05-22T15:08:14.936Z,24.1
2019-05-22T15:13:10.938Z,24.4
2019-05-22T15:18:07.185Z,24.4
2019-05-22T15:23:03.232Z,24.5
2019-05-22T15:27:59.616Z,25
2019-05-22T15:32:55.909Z,24.4
2019-05-22T15:37:51.970Z,24.6
2019-05-22T15:42:48.265Z,23.8
2019-05-22T15:47:54.120Z,23.4
2019-05-22T15:52:39.871Z,23.5
2019-05-22T15:57:36.113Z,23
2019-05-22T16:02:31.959Z,22.3
2019-05-22T16:07:28.062Z,22.2
2019-05-22T16:12:23.989Z,21.9
2019-05-22T16:17:19.938Z,21.6
2019-05-22T16:22:16.139Z,21
2019-05-22T16:27:12.011Z,20.4
2019-05-22T16:32:07.944Z,20.1
2019-05-22T16:37:04.378Z,19.4
2019-05-22T16:42:00.060Z,19.3
2019-05-22T16:46:56.029Z,18.8
2019-05-22T16:51:51.704Z,18.8
2019-05-22T16:56:47.628Z,18.5
2019-05-22T17:01:57.425Z,18.8
2019-05-22T17:06:39.716Z,17.6
2019-05-22T17:11:35.692Z,17.6
2019-05-22T17:16:31.866Z,17.5
2019-05-22T17:21:27.830Z,17.3
2019-05-22T17:26:23.577Z,17.2
2019-05-22T17:31:19.673Z,16.9
2019-05-22T17:36:15.849Z,16.8
2019-05-22T17:41:11.810Z,17.2
2019-05-22T17:46:08.114Z,17.2
2019-05-22T17:51:04.221Z,16.8
2019-05-22T17:56:00.412Z,16.9
2019-05-22T18:00:56.585Z,16.6
2019-05-22T18:05:52.463Z,16.2
2019-05-22T18:10:48.445Z,16.5
2019-05-22T18:15:44.644Z,16
2019-05-22T18:20:43.552Z,16
2019-05-22T18:25:36.596Z,15.9
2019-05-22T18:30:32.927Z,16.1
2019-05-22T18:35:28.872Z,15.9
2019-05-22T18:40:24.879Z,15.8
2019-05-22T18:45:21.064Z,15.1
2019-05-22T18:50:17.066Z,15
2019-05-22T18:55:13.114Z,14.6
2019-05-22T19:00:09.181Z,14.8
2019-05-22T19:05:05.306Z,14.9
2019-05-22T19:10:01.203Z,14.9
2019-05-22T19:14:57.360Z,15.4
2019-05-22T19:19:53.790Z,15.3
2019-05-22T19:24:49.982Z,14.7
2019-05-22T19:29:45.960Z,14.9
2019-05-22T19:34:42.114Z,14.4
2019-05-22T19:39:38.151Z,14.6
2019-05-22T19:44:34.115Z,14.5
2019-05-22T19:49:30.146Z,14.2
2019-05-22T19:54:26.251Z,14.7
2019-05-22T19:59:22.301Z,14.3
2019-05-22T20:04:18.502Z,14.2
2019-05-22T20:09:14.834Z,14.4
2019-05-22T20:14:10.980Z,14.8
2019-05-22T20:19:07.257Z,15.1
2019-05-22T20:24:03.517Z,15.1
2019-05-22T20:28:59.279Z,14.6
2019-05-22T20:33:55.487Z,14
2019-05-22T20:38:51.433Z,13.9
2019-05-22T20:43:47.334Z,13.6
2019-05-22T20:48:43.686Z,13.6
2019-05-22T20:53:52.652Z,13.4
2019-05-22T20:58:35.589Z,13.6
2019-05-22T21:03:31.642Z,13
2019-05-22T21:08:27.691Z,13.5
2019-05-22T21:13:23.891Z,13.4
2019-05-22T21:18:20.215Z,13.4
2019-05-22T21:23:16.493Z,13.5
2019-05-22T21:28:12.619Z,13.5
2019-05-22T21:33:08.722Z,14
2019-05-22T21:38:04.883Z,13.9
2019-05-22T21:43:01.261Z,13.9
2019-05-22T21:47:57.594Z,14.2
2019-05-22T21:52:53.926Z,13.9
2019-05-22T21:57:50.156Z,14.2
2019-05-22T22:02:46.202Z,14
2019-05-22T22:07:42.369Z,14.5
2019-05-22T22:12:38.131Z,14.3
2019-05-22T22:17:34.376Z,14.7
2019-05-22T22:22:30.606Z,14.6
2019-05-22T22:27:26.538Z,14.6
2019-05-22T22:32:22.875Z,14.7
2019-05-22T22:37:19.167Z,14.1
2019-05-22T22:42:15.208Z,14.4
2019-05-22T22:47:11.479Z,14.2
2019-05-22T22:52:07.595Z,14.1
2019-05-22T22:57:03.587Z,14.6
2019-05-22T23:01:59.680Z,14.7
2019-05-22T23:06:55.636Z,14.3
2019-05-22T23:11:51.814Z,13.3
2019-05-22T23:16:47.918Z,13.7
2019-05-22T23:21:43.948Z,13
2019-05-22T23:26:40.169Z,12.7
2019-05-22T23:31:36.202Z,12.4
2019-05-22T23:36:32.133Z,12.5
2019-05-22T23:41:27.899Z,12
2019-05-22T23:46:24.106Z,12.2
2019-05-22T23:51:20.369Z,12.6
2019-05-22T23:56:16.681Z,12.6
